Time;durP1;ratioP1;P1;durP2;ratioP2;P2;SDS_P1;SDS_P2;PMS_P1;PMS_P2;Temp;Humidity;BMP_temperature;BMP_pressure;BME280_temperature;BME280_humidity;BME280_pressure;Samples;Min_cycle;Max_cycle;Signal;HPM_P1;HPM_P2
2022/10/24 00:01:10;;;;;;;11.17;7.47;;;14.20;90.40;;;14.40;58.85;95681.63;5037909;28;20452;-55
2022/10/24 00:03:37;;;;;;;8.70;6.90;;;14.20;90.50;;;14.37;58.73;95672.13;5045121;28;20479;-53
2022/10/24 00:06:06;;;;;;;16.20;7.90;;;14.10;90.50;;;14.34;58.39;95675.06;5043437;28;20479;-54
2022/10/24 00:08:34;;;;;;;8.40;7.37;;;14.10;90.50;;;14.30;58.54;95676.34;5044067;28;20468;-55
2022/10/24 00:11:02;;;;;;;14.90;7.83;;;14.10;90.70;;;14.27;58.58;95666.88;5044672;28;20451;-54
2022/10/24 00:13:29;;;;;;;9.10;7.40;;;14.10;90.90;;;14.26;58.85;95672.31;5044630;28;20872;-54
2022/10/24 00:15:56;;;;;;;13.67;8.50;;;14.00;91.00;;;14.23;58.84;95669.97;5042000;28;20468;-55
2022/10/24 00:18:23;;;;;;;10.87;7.47;;;14.00;91.00;;;14.22;58.77;95663.84;5039312;28;20997;-53
2022/10/24 00:20:51;;;;;;;11.90;8.00;;;14.00;91.00;;;14.20;59.12;95660.47;5043068;28;20952;-53
2022/10/24 00:23:18;;;;;;;10.87;7.67;;;13.90;91.00;;;14.19;59.06;95657.97;5043086;28;20806;-54
2022/10/24 00:25:47;;;;;;;8.70;6.67;;;13.90;91.00;;;14.17;59.04;95668.69;5044117;28;20561;-53
2022/10/24 00:28:14;;;;;;;10.90;7.33;;;13.90;91.20;;;14.15;59.12;95660.09;5040976;28;20833;-54
2022/10/24 00:30:41;;;;;;;11.20;7.87;;;13.90;91.30;;;14.14;59.32;95650.47;5042844;28;20985;-54
2022/10/24 00:33:08;;;;;;;9.20;7.00;;;13.90;91.40;;;14.13;59.13;95656.75;5043178;28;20456;-53
2022/10/24 00:35:35;;;;;;;11.63;7.70;;;13.90;91.40;;;14.11;59.20;95656.03;5040303;28;20521;-56
2022/10/24 00:38:03;;;;;;;12.20;6.80;;;13.90;91.50;;;14.08;59.39;95657.19;5029117;28;20541;-53
2022/10/24 00:40:30;;;;;;;7.23;6.50;;;13.80;91.50;;;14.06;59.34;95658.28;5044480;28;20452;-56
2022/10/24 00:42:59;;;;;;;12.97;7.60;;;13.80;91.50;;;14.02;59.35;95657.75;5044599;28;20460;-54
2022/10/24 00:45:41;;;;;;;9.97;7.20;;;13.80;91.90;;;13.98;60.01;95657.19;5042953;28;20472;-53
2022/10/24 00:48:17;;;;;;;12.07;7.10;;;13.80;92.10;;;13.94;59.64;95655.81;5038482;28;20464;-55
2022/10/24 00:50:45;;;;;;;10.90;6.77;;;13.70;91.90;;;13.90;60.01;95649.13;5044856;28;20447;-53
2022/10/24 00:53:13;;;;;;;8.93;6.13;;;13.70;92.20;;;13.88;59.79;95637.00;5036841;28;20880;-56
2022/10/24 00:55:40;;;;;;;14.13;6.33;;;13.70;92.20;;;13.86;59.67;95654.84;5044002;28;20700;-53
2022/10/24 00:58:09;;;;;;;14.10;7.00;;;13.60;92.20;;;13.83;59.82;95655.94;5037185;28;20474;-52
2022/10/24 01:00:36;;;;;;;17.90;7.10;;;13.60;92.30;;;13.82;60.04;95662.22;5042020;28;20462;-54
2022/10/24 01:03:03;;;;;;;11.73;7.70;;;13.60;92.60;;;13.78;60.33;95658.19;5041521;28;20507;-59
2022/10/24 01:05:36;;;;;;;11.97;7.07;;;13.60;92.80;;;13.76;60.10;95658.31;5041873;28;20759;-54
2022/10/24 01:08:09;;;;;;;24.53;7.90;;;13.50;92.60;;;13.73;60.38;95658.59;5042312;28;20443;-55
2022/10/24 01:10:41;;;;;;;9.50;7.47;;;13.50;92.90;;;13.71;60.39;95660.56;5038511;28;20453;-53
2022/10/24 01:13:20;;;;;;;8.93;7.60;;;13.50;92.90;;;13.70;60.60;95663.34;5034290;28;20445;-54
2022/10/24 01:15:50;;;;;;;8.70;6.30;;;13.50;93.20;;;13.68;60.32;95654.69;5039179;28;20974;-54
2022/10/24 01:18:20;;;;;;;8.17;7.13;;;13.50;93.30;;;13.66;60.49;95651.38;5037768;28;20440;-56
2022/10/24 01:21:09;;;;;;;13.53;7.63;;;13.50;93.30;;;13.63;60.98;95663.91;5042177;28;20451;-53
2022/10/24 01:24:20;;;;;;;6.33;5.40;;;13.40;93.30;;;13.61;60.52;95652.59;5043090;28;20480;-54
2022/10/24 01:27:26;;;;;;;7.60;6.30;;;13.40;93.30;;;13.59;60.31;95666.94;5033046;28;20484;-54
2022/10/24 01:30:02;;;;;;;5.90;5.30;;;13.40;93.40;;;13.52;60.57;95658.72;5023697;28;20501;-54
2022/10/24 01:32:41;;;;;;;8.27;5.47;;;13.30;93.30;;;13.52;60.63;95660.53;5042492;28;20478;-53
2022/10/24 01:35:24;;;;;;;8.67;6.13;;;13.30;93.40;;;13.51;60.61;95659.72;5038103;28;20842;-54
2022/10/24 01:37:55;;;;;;;8.40;5.80;;;13.30;93.30;;;13.51;60.69;95659.72;5034577;28;20441;-55
2022/10/24 01:40:26;;;;;;;8.70;5.33;;;13.30;93.40;;;13.48;60.47;95664.41;5044054;28;20476;-56
2022/10/24 01:42:54;;;;;;;8.23;6.07;;;13.30;93.40;;;13.49;60.29;95660.81;5041597;28;20683;-52
2022/10/24 01:45:28;;;;;;;9.33;5.77;;;13.30;93.40;;;13.47;60.32;95662.78;5042537;28;20630;-54
2022/10/24 01:47:55;;;;;;;10.17;5.97;;;13.20;93.20;;;13.42;60.41;95655.25;5035201;28;20531;-54
2022/10/24 01:50:22;;;;;;;8.87;5.80;;;13.20;93.30;;;13.37;60.34;95653.03;5042505;28;20483;-55
2022/10/24 01:52:50;;;;;;;8.70;6.20;;;13.20;93.30;;;13.33;60.74;95653.41;5035419;28;21049;-55
2022/10/24 01:55:17;;;;;;;9.10;6.33;;;13.10;93.30;;;13.30;60.80;95646.59;5044927;28;20476;-54
2022/10/24 01:57:44;;;;;;;11.17;6.67;;;13.10;93.70;;;13.28;60.95;95659.94;5039485;28;20572;-54
2022/10/24 02:00:17;;;;;;;6.07;5.20;;;13.10;93.80;;;13.26;60.80;95661.03;5040735;28;20480;-56
2022/10/24 02:02:48;;;;;;;7.67;5.73;;;13.10;93.80;;;13.23;60.95;95661.31;5040424;28;20891;-53
2022/10/24 02:05:17;;;;;;;7.60;5.93;;;13.00;93.90;;;13.20;60.60;95659.78;5042513;28;20541;-55
2022/10/24 02:07:47;;;;;;;16.40;5.03;;;13.00;93.80;;;13.15;61.09;95658.50;5041634;28;20487;-57
2022/10/24 02:10:17;;;;;;;6.60;4.93;;;12.90;93.90;;;13.06;61.02;95653.09;5041225;28;21016;-54
2022/10/24 02:12:47;;;;;;;8.10;5.20;;;12.90;94.00;;;13.01;61.13;95655.31;5041478;28;20440;-54
2022/10/24 02:15:18;;;;;;;8.17;4.80;;;12.80;94.00;;;12.99;61.32;95653.75;5035060;28;20476;-55
2022/10/24 02:17:47;;;;;;;6.73;5.17;;;12.80;94.30;;;12.95;61.50;95647.94;5042583;28;20444;-54
2022/10/24 02:20:14;;;;;;;7.27;5.67;;;12.70;94.80;;;12.96;61.83;95664.59;5039304;28;20544;-55
2022/10/24 02:22:46;;;;;;;6.23;4.83;;;12.70;94.80;;;12.98;61.89;95660.84;5046699;28;20521;-54
2022/10/24 02:25:17;;;;;;;6.83;5.13;;;12.80;94.90;;;13.00;61.91;95663.38;5046135;28;20518;-53
2022/10/24 02:27:48;;;;;;;12.13;5.50;;;12.80;95.00;;;13.02;61.61;95661.41;5049025;28;20475;-53
2022/10/24 02:30:17;;;;;;;6.80;5.03;;;12.80;95.00;;;13.05;61.73;95653.22;5039882;28;20475;-54
2022/10/24 02:32:48;;;;;;;6.60;5.87;;;12.80;94.90;;;13.06;61.81;95665.47;5048195;28;20839;-55
2022/10/24 02:35:17;;;;;;;6.63;5.70;;;12.80;94.70;;;13.05;61.48;95654.03;5039106;28;20464;-53
2022/10/24 02:37:47;;;;;;;7.57;4.73;;;12.90;94.70;;;13.06;61.28;95652.25;5040164;28;20956;-55
2022/10/24 02:40:15;;;;;;;7.03;5.27;;;12.80;94.60;;;13.03;61.59;95660.44;5047083;28;21065;-55
2022/10/24 02:42:43;;;;;;;5.77;4.87;;;12.90;94.90;;;13.06;61.74;95661.00;5045603;28;20860;-54
2022/10/24 02:45:11;;;;;;;6.20;5.57;;;12.90;94.80;;;13.06;61.86;95658.38;5044888;28;20537;-54
2022/10/24 02:47:39;;;;;;;13.83;5.93;;;12.90;95.00;;;13.08;61.80;95663.50;5046604;28;20495;-54
2022/10/24 02:50:09;;;;;;;13.53;5.20;;;12.90;95.10;;;13.10;61.76;95666.84;5045744;28;20894;-54
2022/10/24 02:52:37;;;;;;;11.73;5.37;;;12.90;95.00;;;13.07;61.58;95653.91;5032985;28;20472;-54
2022/10/24 02:55:05;;;;;;;6.83;6.03;;;12.90;94.90;;;13.09;61.82;95655.47;5045645;28;20964;-55
2022/10/24 02:57:32;;;;;;;7.73;5.57;;;12.90;95.10;;;13.09;61.84;95652.00;5043405;28;20505;-54
2022/10/24 02:59:59;;;;;;;6.17;5.50;;;12.90;95.10;;;13.08;61.51;95653.78;5044265;28;20475;-55
2022/10/24 03:02:27;;;;;;;5.53;5.03;;;12.90;94.90;;;13.04;61.90;95655.03;5045559;28;20514;-54
2022/10/24 03:04:54;;;;;;;6.80;5.13;;;12.90;95.00;;;13.05;61.36;95647.94;5040122;28;20483;-56
2022/10/24 03:07:23;;;;;;;5.17;4.67;;;12.80;94.90;;;12.98;61.65;95647.66;5043705;28;20569;-55
2022/10/24 03:09:50;;;;;;;9.03;5.40;;;12.80;94.90;;;13.00;61.52;95653.63;5043299;28;20553;-54
2022/10/24 03:12:17;;;;;;;7.77;5.80;;;12.80;94.80;;;12.94;61.64;95651.53;5043389;28;20452;-54
2022/10/24 03:14:45;;;;;;;7.70;5.53;;;12.80;94.80;;;12.87;61.39;95653.88;5041612;28;20825;-55
2022/10/24 03:17:12;;;;;;;11.37;5.83;;;12.70;94.80;;;12.83;61.88;95655.09;5043862;28;20452;-54
2022/10/24 03:19:39;;;;;;;10.00;5.93;;;12.60;94.90;;;12.77;61.68;95660.09;5043229;28;21302;-54
2022/10/24 03:22:06;;;;;;;7.03;4.50;;;12.60;94.80;;;12.74;61.46;95648.00;5044295;28;20940;-53
2022/10/24 03:24:35;;;;;;;4.90;4.03;;;12.60;94.90;;;12.71;61.74;95648.25;5045495;28;21023;-53
2022/10/24 03:27:02;;;;;;;4.87;4.37;;;12.50;94.90;;;12.67;61.81;95650.34;5040637;28;21088;-55
2022/10/24 03:29:30;;;;;;;5.80;5.17;;;12.50;95.00;;;12.65;62.07;95651.44;5043393;28;20937;-55
2022/10/24 03:31:57;;;;;;;5.10;4.60;;;12.50;95.20;;;12.63;62.13;95653.38;5043022;28;20453;-54
2022/10/24 03:34:24;;;;;;;5.50;4.50;;;12.50;95.30;;;12.62;61.92;95643.78;5046822;28;20468;-55
2022/10/24 03:36:51;;;;;;;7.60;4.83;;;12.50;95.50;;;12.61;62.26;95652.66;5041257;28;20456;-54
2022/10/24 03:39:19;;;;;;;6.83;4.50;;;12.50;95.40;;;12.59;62.34;95657.25;5043055;28;20971;-53
2022/10/24 03:41:47;;;;;;;14.60;5.27;;;12.40;95.60;;;12.59;62.10;95654.59;5042163;28;20531;-56
2022/10/24 03:44:14;;;;;;;8.70;4.87;;;12.40;95.50;;;12.61;62.40;95655.28;5041463;28;20474;-54
2022/10/24 03:46:42;;;;;;;19.00;4.97;;;12.40;95.60;;;12.62;62.42;95656.97;5044009;28;20491;-54
2022/10/24 03:49:09;;;;;;;7.80;5.57;;;12.40;95.70;;;12.63;62.32;95656.84;5047148;28;20478;-55
2022/10/24 03:51:36;;;;;;;6.37;4.67;;;12.40;95.60;;;12.65;62.41;95654.06;5038685;28;21007;-54
2022/10/24 03:54:04;;;;;;;5.30;4.60;;;12.40;95.70;;;12.63;62.52;95653.38;5045303;28;20525;-55
2022/10/24 03:56:31;;;;;;;9.90;5.10;;;12.40;95.70;;;12.62;62.27;95649.06;5039779;28;20447;-56
2022/10/24 03:58:59;;;;;;;6.50;5.43;;;12.40;95.70;;;12.58;62.30;95645.00;5040535;28;21008;-55
2022/10/24 04:01:27;;;;;;;9.53;5.37;;;12.40;95.60;;;12.59;62.22;95651.97;5043993;28;20460;-53
2022/10/24 04:03:54;;;;;;;9.27;5.73;;;12.40;95.60;;;12.58;62.02;95650.28;5045096;28;20475;-56
2022/10/24 04:06:21;;;;;;;9.77;5.90;;;12.40;95.60;;;12.54;62.12;95650.53;5045159;28;20447;-54
2022/10/24 04:08:49;;;;;;;8.00;5.40;;;12.40;95.70;;;12.51;62.28;95650.81;5043065;28;20476;-54
2022/10/24 04:11:16;;;;;;;13.30;6.40;;;12.40;95.70;;;12.51;62.47;95642.91;5043562;28;20456;-55
2022/10/24 04:13:43;;;;;;;7.13;5.20;;;12.30;95.70;;;12.52;62.84;95643.75;5041171;28;20475;-53
2022/10/24 04:16:12;;;;;;;13.80;6.10;;;12.30;95.90;;;12.51;62.44;95637.63;5041620;28;20515;-56
2022/10/24 04:18:39;;;;;;;10.07;5.90;;;12.30;95.80;;;12.52;62.44;95641.13;5039590;28;20533;-54
2022/10/24 04:21:06;;;;;;;36.53;6.70;;;12.40;95.80;;;12.52;62.62;95641.94;5038761;28;20894;-55
2022/10/24 04:23:39;;;;;;;17.03;6.00;;;12.30;95.90;;;12.51;62.42;95639.44;5042413;28;20475;-54
2022/10/24 04:26:07;;;;;;;12.47;5.40;;;12.30;95.80;;;12.50;62.52;95651.81;5041314;28;20806;-56
2022/10/24 04:28:34;;;;;;;11.30;6.20;;;12.30;96.00;;;12.49;62.64;95649.28;5041649;28;20496;-56
2022/10/24 04:31:01;;;;;;;18.53;6.30;;;12.30;96.00;;;12.47;62.85;95654.69;5043026;28;20974;-54
2022/10/24 04:33:30;;;;;;;14.83;6.43;;;12.30;96.10;;;12.48;62.55;95653.72;5036377;28;20477;-56
2022/10/24 04:35:57;;;;;;;16.73;6.70;;;12.30;96.20;;;12.49;62.73;95652.75;5042410;28;20807;-56
2022/10/24 04:38:25;;;;;;;10.70;6.20;;;12.30;96.10;;;12.47;62.66;95654.69;5034899;28;21000;-56
2022/10/24 04:40:53;;;;;;;16.90;7.13;;;12.30;96.20;;;12.47;62.80;95661.75;5044695;28;20845;-55
2022/10/24 04:43:20;;;;;;;21.10;6.80;;;12.30;96.20;;;12.46;63.07;95658.28;5040780;28;20917;-56
2022/10/24 04:45:48;;;;;;;18.80;7.77;;;12.30;96.30;;;12.47;63.10;95656.47;5042560;28;21398;-53
2022/10/24 04:48:15;;;;;;;20.70;6.77;;;12.30;96.30;;;12.45;62.96;95656.63;5032270;28;20534;-54
2022/10/24 04:50:45;;;;;;;19.43;6.70;;;12.30;96.30;;;12.43;62.94;95663.84;5035336;28;20448;-54
2022/10/24 04:53:12;;;;;;;22.83;8.00;;;12.30;96.40;;;12.42;62.95;95662.16;5036663;28;20453;-53
2022/10/24 04:55:39;;;;;;;11.27;7.33;;;12.20;96.40;;;12.42;62.88;95656.06;5042316;28;20960;-53
2022/10/24 04:58:07;;;;;;;18.23;7.63;;;12.20;96.40;;;12.43;63.06;95658.56;5038192;28;20832;-56
2022/10/24 05:00:34;;;;;;;20.53;7.00;;;12.20;96.40;;;12.42;63.32;95659.53;5043010;28;20525;-56
2022/10/24 05:03:01;;;;;;;19.87;9.00;;;12.20;96.50;;;12.42;63.20;95654.25;5042086;28;20800;-54
2022/10/24 05:05:28;;;;;;;10.30;7.70;;;12.20;96.50;;;12.42;63.11;95663.97;5045176;28;20971;-55
2022/10/24 05:07:57;;;;;;;16.67;7.47;;;12.20;96.50;;;12.39;63.11;95665.06;5040292;28;20491;-54
2022/10/24 05:10:24;;;;;;;18.47;8.60;;;12.20;96.60;;;12.39;62.92;95665.06;5036263;28;20467;-55
2022/10/24 05:12:52;;;;;;;22.60;9.67;;;12.20;96.50;;;12.40;63.08;95669.38;5042631;28;20462;-55
2022/10/24 05:15:19;;;;;;;18.90;9.30;;;12.20;96.60;;;12.38;63.21;95672.16;5042014;28;20478;-55
2022/10/24 05:17:47;;;;;;;14.73;7.90;;;12.20;96.60;;;12.40;63.18;95668.56;5041732;28;20449;-54
2022/10/24 05:20:14;;;;;;;27.50;9.87;;;12.20;96.70;;;12.41;63.47;95663.16;5040567;28;20467;-56
2022/10/24 05:22:41;;;;;;;19.40;10.43;;;12.20;96.90;;;12.43;63.38;95660.38;5034125;28;20463;-57
2022/10/24 05:25:10;;;;;;;19.23;9.00;;;12.20;96.90;;;12.46;63.60;95668.84;5041665;28;20533;-57
2022/10/24 05:27:37;;;;;;;14.90;9.20;;;12.30;96.90;;;12.50;63.29;95667.63;5043230;28;20549;-55
2022/10/24 05:30:06;;;;;;;23.23;9.90;;;12.30;96.80;;;12.55;63.24;95668.06;5041779;28;20496;-54
2022/10/24 05:32:33;;;;;;;10.80;8.87;;;12.40;96.90;;;12.60;62.99;95666.84;5041428;28;20506;-56
2022/10/24 05:35:00;;;;;;;30.10;7.67;;;12.40;96.80;;;12.65;62.63;95670.72;5036189;28;20481;-54
2022/10/24 05:37:27;;;;;;;18.90;7.77;;;12.40;96.60;;;12.70;62.71;95672.97;5039763;28;20444;-56
2022/10/24 05:39:55;;;;;;;19.80;8.30;;;12.50;96.50;;;12.75;62.85;95670.78;5040103;28;20476;-57
2022/10/24 05:42:23;;;;;;;20.33;9.33;;;12.60;96.50;;;12.83;62.31;95681.50;5044046;28;20593;-55
2022/10/24 05:44:50;;;;;;;25.20;8.00;;;12.60;96.40;;;12.95;62.05;95682.25;5044396;28;21000;-54
2022/10/24 05:47:18;;;;;;;24.23;8.90;;;12.80;96.30;;;13.05;62.51;95683.09;5046402;28;20541;-55
2022/10/24 05:49:45;;;;;;;22.93;8.00;;;12.80;96.20;;;13.15;62.25;95685.78;5046383;28;20549;-55
2022/10/24 05:52:12;;;;;;;26.37;8.47;;;12.90;96.10;;;13.28;62.01;95683.72;5046512;28;20473;-55
2022/10/24 05:54:39;;;;;;;34.83;8.63;;;13.00;95.90;;;13.47;61.65;95682.09;5042603;28;20479;-55
2022/10/24 05:57:07;;;;;;;19.30;8.13;;;13.20;96.00;;;13.68;61.32;95697.84;5045561;28;20470;-55
2022/10/24 05:59:35;;;;;;;29.47;9.10;;;13.40;95.90;;;13.90;61.11;95688.78;5044961;28;20494;-56
2022/10/24 06:02:03;;;;;;;22.17;7.83;;;13.60;95.70;;;14.15;61.18;95699.75;5045742;28;20991;-55
2022/10/24 06:04:30;;;;;;;23.37;8.90;;;13.80;96.00;;;14.42;61.54;95701.69;5046180;28;20541;-55
2022/10/24 06:06:57;;;;;;;16.40;8.43;;;14.10;96.50;;;14.73;60.91;95701.44;5049422;28;20891;-54
2022/10/24 06:09:25;;;;;;;17.00;8.97;;;14.30;95.80;;;15.06;59.79;95710.66;5041098;28;20464;-53
2022/10/24 06:11:52;;;;;;;17.63;9.07;;;14.60;95.00;;;15.36;58.67;95695.44;5048076;28;20481;-57
2022/10/24 06:14:19;;;;;;;17.40;8.27;;;15.00;94.20;;;15.69;57.94;95695.78;5042184;28;20483;-55
2022/10/24 06:16:48;;;;;;;15.07;8.13;;;15.30;93.50;;;16.02;56.99;95685.50;5046455;28;20452;-54
2022/10/24 06:19:15;;;;;;;21.43;8.10;;;15.60;92.80;;;16.34;56.43;95688.56;5035928;28;20528;-54
2022/10/24 06:21:42;;;;;;;18.73;8.90;;;15.90;92.10;;;16.64;55.84;95689.91;5044742;28;20459;-54
2022/10/24 06:24:10;;;;;;;25.53;8.60;;;16.20;91.60;;;16.97;55.08;95706.06;5045158;28;20556;-57
2022/10/24 06:26:37;;;;;;;19.90;8.27;;;16.50;91.00;;;17.31;54.52;95708.69;5047004;28;20938;-55
2022/10/24 06:29:04;;;;;;;13.70;6.77;;;16.90;90.80;;;17.68;53.95;95699.47;5046129;28;21024;-54
2022/10/24 06:31:34;;;;;;;18.97;7.50;;;17.10;89.90;;;18.06;53.68;95704.38;5045290;28;20452;-56
2022/10/24 06:34:03;;;;;;;23.03;8.00;;;17.50;89.00;;;18.44;52.49;95704.72;5046804;28;20887;-55
2022/10/24 06:36:30;;;;;;;16.27;6.63;;;17.90;87.40;;;18.80;52.17;95704.31;5043796;28;20475;-54
2022/10/24 06:38:57;;;;;;;22.07;7.57;;;18.30;85.30;;;19.22;51.23;95710.38;5040612;28;20471;-56
2022/10/24 06:41:24;;;;;;;24.43;7.70;;;18.70;84.80;;;19.63;50.62;95711.03;5045495;28;20455;-57
2022/10/24 06:43:52;;;;;;;23.20;8.57;;;19.00;83.50;;;20.04;50.50;95713.44;5047902;28;21031;-54
2022/10/24 06:46:22;;;;;;;17.93;7.47;;;19.50;82.90;;;20.46;49.43;95711.28;5044291;28;20521;-54
2022/10/24 06:48:49;;;;;;;11.00;6.73;;;19.80;80.00;;;20.91;48.93;95719.41;5046608;28;20986;-54
2022/10/24 06:51:18;;;;;;;21.27;7.90;;;20.30;79.00;;;21.33;47.98;95719.78;5041166;28;20452;-57
2022/10/24 06:53:45;;;;;;;23.87;6.73;;;20.70;77.00;;;21.71;47.29;95723.16;5044286;28;20471;-56
2022/10/24 06:56:13;;;;;;;20.83;6.10;;;21.10;75.30;;;22.10;46.30;95719.25;5034508;28;20448;-56
2022/10/24 06:58:40;;;;;;;13.97;6.30;;;21.50;73.40;;;22.50;45.14;95714.28;5046814;28;20483;-56
2022/10/24 07:01:08;;;;;;;15.17;7.40;;;21.90;70.30;;;22.92;44.73;95717.91;5044705;28;20822;-55
2022/10/24 07:03:36;;;;;;;15.90;6.50;;;22.40;69.00;;;23.32;44.47;95714.66;5045061;28;20483;-56
2022/10/24 07:06:07;;;;;;;19.03;6.80;;;22.80;69.10;;;23.75;44.17;95716.28;5046292;28;20478;-57
2022/10/24 07:08:36;;;;;;;18.10;7.33;;;23.30;66.80;;;24.17;42.54;95727.81;5037879;28;20544;-58
2022/10/24 07:11:03;;;;;;;20.30;7.33;;;23.80;64.50;;;24.61;42.38;95718.34;5041897;28;20474;-55
2022/10/24 07:13:30;;;;;;;15.70;8.43;;;24.20;62.50;;;25.07;41.57;95713.97;5047047;28;20467;-55
2022/10/24 07:15:58;;;;;;;19.33;7.87;;;24.70;61.50;;;25.46;40.17;95723.03;5044480;28;20863;-56
2022/10/24 07:18:25;;;;;;;20.43;7.97;;;25.20;58.60;;;25.79;40.42;95718.53;5041797;28;20930;-54
2022/10/24 07:20:52;;;;;;;13.30;7.33;;;25.60;58.50;;;26.06;39.55;95714.69;5045544;28;20517;-55
2022/10/24 07:23:19;;;;;;;13.57;7.20;;;25.90;56.90;;;26.33;39.26;95711.00;5046119;28;20455;-54
2022/10/24 07:25:48;;;;;;;13.37;5.70;;;26.30;56.50;;;26.51;38.29;95713.78;5043208;28;20451;-55
2022/10/24 07:28:15;;;;;;;8.10;6.50;;;26.50;55.10;;;26.70;38.23;95697.69;5044495;28;20957;-54
2022/10/24 07:30:44;;;;;;;10.73;6.80;;;26.80;54.70;;;26.89;37.43;95701.25;5045487;28;20452;-55
2022/10/24 07:33:11;;;;;;;16.23;7.00;;;27.00;53.80;;;27.00;37.53;95708.59;5037420;28;20455;-53
2022/10/24 07:35:42;;;;;;;14.53;7.00;;;27.10;53.80;;;27.13;37.43;95708.50;5045270;28;20964;-55
2022/10/24 07:38:09;;;;;;;15.33;7.80;;;27.30;53.30;;;27.22;36.70;95709.03;5042162;28;20440;-55
2022/10/24 07:40:36;;;;;;;27.33;6.93;;;27.30;52.20;;;27.36;36.24;95713.25;5047459;28;20456;-55
2022/10/24 07:43:05;;;;;;;21.83;7.07;;;27.30;51.60;;;27.50;36.42;95719.34;5041116;28;20452;-54
2022/10/24 07:45:32;;;;;;;21.87;7.80;;;27.30;51.60;;;27.63;36.33;95720.25;5046153;28;20455;-55
2022/10/24 07:48:00;;;;;;;19.87;7.67;;;27.30;51.70;;;27.69;36.00;95711.22;5043318;28;20902;-54
2022/10/24 07:50:27;;;;;;;26.13;8.20;;;27.30;51.30;;;27.74;35.66;95703.25;5044610;28;20538;-54
2022/10/24 07:52:54;;;;;;;22.27;10.43;;;27.30;51.00;;;27.78;35.25;95701.75;5043008;28;20452;-54
2022/10/24 07:55:21;;;;;;;33.63;12.33;;;27.30;50.20;;;27.83;34.49;95703.78;5042637;28;21010;-56
2022/10/24 07:57:49;;;;;;;19.83;7.90;;;27.30;50.00;;;27.86;34.79;95704.13;5042527;28;20449;-56
2022/10/24 08:00:18;;;;;;;27.00;9.00;;;27.30;50.00;;;27.94;34.87;95702.19;5045999;28;20476;-55
2022/10/24 08:02:45;;;;;;;20.37;8.30;;;27.30;50.20;;;27.97;34.54;95699.88;5044435;28;20451;-55
2022/10/24 08:05:13;;;;;;;28.27;8.40;;;27.40;49.70;;;27.94;34.52;95699.47;5045071;28;20566;-55
2022/10/24 08:07:40;;;;;;;13.43;6.27;;;27.40;49.20;;;27.93;34.89;95692.41;5040885;28;20451;-53
2022/10/24 08:10:10;;;;;;;22.47;6.10;;;27.30;49.10;;;28.01;34.46;95695.66;5036414;28;20482;-54
2022/10/24 08:12:37;;;;;;;24.20;7.30;;;27.40;49.20;;;28.14;33.96;95691.94;5042889;28;20439;-54
2022/10/24 08:15:06;;;;;;;18.00;6.33;;;27.50;49.20;;;28.19;34.37;95685.81;5045935;28;20471;-55
2022/10/24 08:17:35;;;;;;;15.47;7.50;;;27.50;49.20;;;28.22;34.28;95675.38;5042287;28;20459;-54
2022/10/24 08:20:02;;;;;;;12.20;7.00;;;27.60;48.60;;;28.20;34.06;95682.06;5042226;28;20506;-56
2022/10/24 08:22:30;;;;;;;15.80;7.50;;;27.60;48.70;;;28.04;33.90;95684.38;5044528;28;20448;-53
2022/10/24 08:24:57;;;;;;;13.60;6.20;;;27.50;48.10;;;27.85;33.93;95688.97;5041250;28;20475;-56
2022/10/24 08:27:24;;;;;;;12.50;5.60;;;27.40;47.80;;;27.69;34.10;95692.31;5042939;28;21044;-53
2022/10/24 08:29:51;;;;;;;18.03;7.93;;;27.20;48.30;;;27.62;33.78;95687.00;5043492;28;20502;-56
2022/10/24 08:32:19;;;;;;;34.17;7.37;;;27.10;47.80;;;27.65;34.15;95683.00;5044422;28;20447;-54
2022/10/24 08:34:47;;;;;;;22.73;7.80;;;27.10;48.40;;;27.72;33.67;95681.03;5043022;28;20479;-54
2022/10/24 08:37:14;;;;;;;9.77;6.10;;;27.10;48.20;;;27.84;33.84;95668.41;5040653;28;20517;-55
2022/10/24 08:39:42;;;;;;;13.70;6.60;;;27.20;48.00;;;28.01;33.43;95673.19;5040873;28;20471;-55
2022/10/24 08:42:13;;;;;;;15.60;7.50;;;27.30;48.00;;;28.19;32.73;95677.72;5043337;28;20459;-55
2022/10/24 08:44:41;;;;;;;22.07;7.50;;;27.40;47.30;;;28.31;33.07;95666.94;5041615;28;21031;-54
2022/10/24 08:47:14;;;;;;;16.30;7.03;;;27.60;47.80;;;28.46;32.73;95664.59;5045481;28;20448;-54
2022/10/24 08:49:45;;;;;;;22.70;8.63;;;27.70;47.30;;;28.56;33.01;95659.44;5039018;28;20506;-55
2022/10/24 08:52:27;;;;;;;15.37;8.10;;;27.80;46.90;;;28.63;33.02;95651.25;5040496;28;20444;-55
2022/10/24 08:54:54;;;;;;;11.83;7.00;;;27.90;47.00;;;28.75;32.63;95654.78;5037913;28;20631;-53
2022/10/24 08:57:23;;;;;;;16.13;8.53;;;28.00;47.00;;;28.86;32.84;95653.13;5041888;28;20460;-53
2022/10/24 08:59:51;;;;;;;16.80;6.83;;;28.10;46.70;;;29.01;32.60;95654.53;5036264;28;20879;-56
2022/10/24 09:02:21;;;;;;;15.07;7.83;;;28.30;46.40;;;29.09;31.70;95651.44;5043202;28;21029;-54
2022/10/24 09:04:51;;;;;;;9.40;7.07;;;28.40;45.80;;;29.16;32.54;95654.88;5045325;28;20475;-52
2022/10/24 09:07:20;;;;;;;13.37;6.53;;;28.40;46.30;;;29.31;32.04;95657.94;5040995;28;20452;-55
2022/10/24 09:09:49;;;;;;;18.77;6.87;;;28.50;46.40;;;29.41;31.97;95648.38;5043683;28;21079;-54
2022/10/24 09:12:18;;;;;;;10.90;7.40;;;28.60;46.30;;;29.39;32.15;95650.47;5041560;28;20964;-55
2022/10/24 09:14:46;;;;;;;13.10;6.97;;;28.70;45.90;;;29.43;32.25;95640.81;5042810;28;20475;-55
2022/10/24 09:17:18;;;;;;;8.23;6.73;;;28.70;45.30;;;29.53;32.37;95651.03;5042662;28;20539;-55
2022/10/24 09:19:49;;;;;;;9.77;7.10;;;28.80;45.80;;;29.46;31.94;95643.03;5042308;28;20477;-53
2022/10/24 09:22:17;;;;;;;18.80;7.50;;;28.80;45.30;;;29.36;32.05;95642.81;5040487;28;20455;-54
2022/10/24 09:24:49;;;;;;;10.93;5.97;;;28.70;45.40;;;29.32;32.22;95640.59;5043619;28;21111;-54
2022/10/24 09:27:19;;;;;;;24.70;7.90;;;28.70;45.60;;;29.41;31.98;95643.75;5041572;28;20489;-54
2022/10/24 09:29:46;;;;;;;16.23;8.00;;;28.70;45.40;;;29.52;31.36;95625.81;5042706;28;20499;-56
2022/10/24 09:32:16;;;;;;;15.00;7.10;;;28.80;45.10;;;29.57;31.54;95636.75;5035743;28;21025;-54
2022/10/24 09:34:44;;;;;;;20.13;8.07;;;28.80;45.30;;;29.68;31.65;95632.34;5041096;28;20566;-55
2022/10/24 09:37:30;;;;;;;16.30;7.60;;;28.90;45.50;;;29.77;31.76;95619.25;5033882;28;20453;-53
2022/10/24 09:40:16;;;;;;;9.43;6.87;;;29.00;44.50;;;29.70;31.46;95632.97;5036156;28;21039;-53
2022/10/24 09:42:53;;;;;;;12.10;7.00;;;29.10;44.70;;;29.72;31.75;95619.97;5037120;28;20516;-54
2022/10/24 09:45:39;;;;;;;11.97;7.70;;;29.10;45.40;;;29.86;31.10;95626.78;5040112;28;20520;-54
2022/10/24 09:48:17;;;;;;;16.40;7.70;;;29.20;45.00;;;29.99;31.72;95622.97;5039765;28;20467;-56
2022/10/24 09:50:45;;;;;;;19.23;8.00;;;29.30;44.80;;;30.03;31.37;95618.66;5043098;28;20792;-54
2022/10/24 09:53:24;;;;;;;20.00;7.80;;;29.30;44.70;;;30.12;30.80;95615.56;5039141;28;20563;-54
2022/10/24 09:55:54;;;;;;;19.27;7.30;;;29.40;44.70;;;30.15;31.30;95615.09;5040709;28;20447;-56
2022/10/24 09:58:31;;;;;;;16.47;7.30;;;29.50;44.50;;;30.17;31.09;95612.94;5042986;28;20466;-54
2022/10/24 10:01:01;;;;;;;20.10;8.07;;;29.50;44.40;;;30.20;31.22;95615.16;5036916;28;20439;-55
2022/10/24 10:03:28;;;;;;;16.07;7.00;;;29.50;44.30;;;30.24;31.06;95607.34;5040499;28;20486;-55
2022/10/24 10:05:56;;;;;;;13.53;7.60;;;29.60;44.90;;;30.27;31.07;95596.84;5040235;28;20509;-56
2022/10/24 10:08:24;;;;;;;22.20;8.50;;;29.60;44.30;;;30.32;31.54;95596.91;5044454;28;20475;-55
2022/10/24 10:11:05;;;;;;;23.67;7.00;;;29.70;44.50;;;30.42;30.84;95598.97;5041419;28;20463;-55
2022/10/24 10:13:37;;;;;;;12.60;7.30;;;29.70;44.40;;;30.51;31.53;95596.69;5042813;28;20548;-57
2022/10/24 10:16:06;;;;;;;14.87;7.33;;;29.80;44.40;;;30.58;31.07;95594.59;5039746;28;20447;-54
2022/10/24 10:18:41;;;;;;;23.33;7.60;;;29.90;43.90;;;30.59;31.45;95593.53;5037519;28;20537;-54
2022/10/24 10:21:11;;;;;;;21.70;6.93;;;29.90;44.10;;;30.50;30.97;95584.19;5036507;28;20542;-54
2022/10/24 10:23:40;;;;;;;23.97;8.20;;;29.90;43.60;;;30.43;30.59;95587.06;5041318;28;20472;-56